sensor_id;sensor_type;location;lat;lon;timestamp;pressure;altitude;pressure_sealevel;temperature;humidity
77011;BME280;65945;53.148;17.956;2023-02-15T00:00:52;102924.27;;;-0.28;83.55
77011;BME280;65945;53.148;17.956;2023-02-15T00:03:28;102923.45;;;-0.29;83.67
77011;BME280;65945;53.148;17.956;2023-02-15T00:05:59;102925.88;;;-0.31;83.88
77011;BME280;65945;53.148;17.956;2023-02-15T00:08:26;102927.63;;;-0.34;83.93
77011;BME280;65945;53.148;17.956;2023-02-15T00:10:53;102926.41;;;-0.38;83.68
77011;BME280;65945;53.148;17.956;2023-02-15T00:13:19;102926.96;;;-0.39;83.99
77011;BME280;65945;53.148;17.956;2023-02-15T00:15:46;102926.86;;;-0.37;84.07
77011;BME280;65945;53.148;17.956;2023-02-15T00:18:13;102924.86;;;-0.34;83.86
77011;BME280;65945;53.148;17.956;2023-02-15T00:20:40;102922.92;;;-0.27;83.81
77011;BME280;65945;53.148;17.956;2023-02-15T00:23:06;102919.20;;;-0.21;83.98
77011;BME280;65945;53.148;17.956;2023-02-15T00:25:33;102912.38;;;-0.17;83.88
77011;BME280;65945;53.148;17.956;2023-02-15T00:28:00;102913.11;;;-0.11;83.73
77011;BME280;65945;53.148;17.956;2023-02-15T00:30:26;102911.59;;;-0.06;83.89
77011;BME280;65945;53.148;17.956;2023-02-15T00:32:53;102911.67;;;-0.01;83.76
77011;BME280;65945;53.148;17.956;2023-02-15T00:35:20;102912.85;;;0.04;83.30
77011;BME280;65945;53.148;17.956;2023-02-15T00:37:46;102911.22;;;0.10;83.46
77011;BME280;65945;53.148;17.956;2023-02-15T00:40:13;102908.98;;;0.15;83.63
77011;BME280;65945;53.148;17.956;2023-02-15T00:42:39;102906.90;;;0.18;83.12
77011;BME280;65945;53.148;17.956;2023-02-15T00:45:06;102908.89;;;0.22;83.48
77011;BME280;65945;53.148;17.956;2023-02-15T00:47:33;102905.86;;;0.27;83.24
77011;BME280;65945;53.148;17.956;2023-02-15T00:50:00;102906.95;;;0.31;83.37
77011;BME280;65945;53.148;17.956;2023-02-15T00:52:26;102907.28;;;0.32;83.17
77011;BME280;65945;53.148;17.956;2023-02-15T00:54:53;102907.10;;;0.33;83.00
77011;BME280;65945;53.148;17.956;2023-02-15T00:57:19;102909.63;;;0.37;83.33
77011;BME280;65945;53.148;17.956;2023-02-15T00:59:47;102904.58;;;0.39;83.26
77011;BME280;65945;53.148;17.956;2023-02-15T01:02:13;102900.67;;;0.42;83.14
77011;BME280;65945;53.148;17.956;2023-02-15T01:04:40;102901.83;;;0.43;83.13
77011;BME280;65945;53.148;17.956;2023-02-15T01:07:07;102900.41;;;0.44;82.77
77011;BME280;65945;53.148;17.956;2023-02-15T01:09:33;102897.36;;;0.44;82.81
77011;BME280;65945;53.148;17.956;2023-02-15T01:12:00;102901.32;;;0.45;83.33
77011;BME280;65945;53.148;17.956;2023-02-15T01:14:26;102900.14;;;0.45;83.21
77011;BME280;65945;53.148;17.956;2023-02-15T01:16:53;102898.80;;;0.47;83.35
77011;BME280;65945;53.148;17.956;2023-02-15T01:19:19;102896.49;;;0.52;83.02
77011;BME280;65945;53.148;17.956;2023-02-15T01:21:46;102893.98;;;0.57;83.25
77011;BME280;65945;53.148;17.956;2023-02-15T01:24:13;102891.77;;;0.59;83.05
77011;BME280;65945;53.148;17.956;2023-02-15T01:26:40;102884.85;;;0.58;82.90
77011;BME280;65945;53.148;17.956;2023-02-15T01:29:06;102883.28;;;0.57;83.15
77011;BME280;65945;53.148;17.956;2023-02-15T01:31:33;102881.13;;;0.56;83.10
77011;BME280;65945;53.148;17.956;2023-02-15T01:34:00;102878.92;;;0.54;83.20
77011;BME280;65945;53.148;17.956;2023-02-15T01:36:26;102872.32;;;0.54;83.29
77011;BME280;65945;53.148;17.956;2023-02-15T01:38:53;102872.24;;;0.53;82.87
77011;BME280;65945;53.148;17.956;2023-02-15T01:41:19;102867.13;;;0.55;83.02
77011;BME280;65945;53.148;17.956;2023-02-15T01:43:59;102865.73;;;0.55;83.09
77011;BME280;65945;53.148;17.956;2023-02-15T01:46:31;102866.12;;;0.57;83.21
77011;BME280;65945;53.148;17.956;2023-02-15T01:49:03;102860.52;;;0.61;83.10
77011;BME280;65945;53.148;17.956;2023-02-15T01:51:34;102861.83;;;0.63;83.14
77011;BME280;65945;53.148;17.956;2023-02-15T01:54:09;102862.37;;;0.66;83.13
77011;BME280;65945;53.148;17.956;2023-02-15T01:56:39;102859.86;;;0.66;83.13
77011;BME280;65945;53.148;17.956;2023-02-15T01:59:11;102860.56;;;0.66;83.18
77011;BME280;65945;53.148;17.956;2023-02-15T02:01:42;102858.98;;;0.68;82.98
77011;BME280;65945;53.148;17.956;2023-02-15T02:04:21;102858.02;;;0.69;83.09
77011;BME280;65945;53.148;17.956;2023-02-15T02:06:51;102857.98;;;0.70;82.93
77011;BME280;65945;53.148;17.956;2023-02-15T02:09:18;102860.38;;;0.71;83.06
77011;BME280;65945;53.148;17.956;2023-02-15T02:11:47;102855.70;;;0.74;82.96
77011;BME280;65945;53.148;17.956;2023-02-15T02:14:15;102853.91;;;0.79;83.19
77011;BME280;65945;53.148;17.956;2023-02-15T02:16:57;102851.40;;;0.83;83.02
77011;BME280;65945;53.148;17.956;2023-02-15T02:22:55;102849.30;;;0.87;82.56
77011;BME280;65945;53.148;17.956;2023-02-15T02:34:04;102843.95;;;0.87;82.90
77011;BME280;65945;53.148;17.956;2023-02-15T02:39:52;102843.20;;;0.82;82.51
77011;BME280;65945;53.148;17.956;2023-02-15T02:42:25;102844.23;;;0.78;82.82
77011;BME280;65945;53.148;17.956;2023-02-15T02:50:13;102836.66;;;0.70;82.73
77011;BME280;65945;53.148;17.956;2023-02-15T02:52:47;102838.73;;;0.67;82.77
77011;BME280;65945;53.148;17.956;2023-02-15T02:55:30;102831.64;;;0.64;82.87
77011;BME280;65945;53.148;17.956;2023-02-15T02:58:13;102833.89;;;0.64;83.04
77011;BME280;65945;53.148;17.956;2023-02-15T03:00:47;102831.58;;;0.64;82.83
77011;BME280;65945;53.148;17.956;2023-02-15T03:03:31;102827.75;;;0.63;82.63
77011;BME280;65945;53.148;17.956;2023-02-15T03:06:04;102828.12;;;0.61;82.75
77011;BME280;65945;53.148;17.956;2023-02-15T03:08:36;102823.91;;;0.58;82.74
77011;BME280;65945;53.148;17.956;2023-02-15T03:11:04;102825.59;;;0.55;82.73
77011;BME280;65945;53.148;17.956;2023-02-15T03:13:32;102822.61;;;0.54;82.79
77011;BME280;65945;53.148;17.956;2023-02-15T03:16:00;102823.70;;;0.54;83.26
77011;BME280;65945;53.148;17.956;2023-02-15T03:18:51;102821.83;;;0.55;83.09
77011;BME280;65945;53.148;17.956;2023-02-15T03:24:21;102820.23;;;0.56;82.89
77011;BME280;65945;53.148;17.956;2023-02-15T03:26:50;102820.94;;;0.57;82.57
77011;BME280;65945;53.148;17.956;2023-02-15T03:29:24;102819.47;;;0.58;82.92
77011;BME280;65945;53.148;17.956;2023-02-15T03:32:00;102817.20;;;0.57;82.92
77011;BME280;65945;53.148;17.956;2023-02-15T03:34:29;102818.84;;;0.57;82.85
77011;BME280;65945;53.148;17.956;2023-02-15T03:37:25;102816.84;;;0.58;82.99
77011;BME280;65945;53.148;17.956;2023-02-15T03:42:32;102814.56;;;0.60;83.04
77011;BME280;65945;53.148;17.956;2023-02-15T03:45:24;102813.27;;;0.63;82.98
77011;BME280;65945;53.148;17.956;2023-02-15T03:47:52;102809.93;;;0.65;83.07
77011;BME280;65945;53.148;17.956;2023-02-15T03:50:33;102810.83;;;0.67;83.05
77011;BME280;65945;53.148;17.956;2023-02-15T03:53:22;102809.56;;;0.69;83.11
77011;BME280;65945;53.148;17.956;2023-02-15T03:55:53;102803.85;;;0.71;83.19
77011;BME280;65945;53.148;17.956;2023-02-15T03:58:21;102803.56;;;0.72;83.12
77011;BME280;65945;53.148;17.956;2023-02-15T04:04:19;102804.75;;;0.76;83.25
77011;BME280;65945;53.148;17.956;2023-02-15T04:06:46;102805.39;;;0.79;82.85
77011;BME280;65945;53.148;17.956;2023-02-15T04:09:13;102803.97;;;0.82;83.13
77011;BME280;65945;53.148;17.956;2023-02-15T04:11:59;102805.95;;;0.82;82.83
77011;BME280;65945;53.148;17.956;2023-02-15T04:14:26;102809.52;;;0.82;82.83
77011;BME280;65945;53.148;17.956;2023-02-15T04:17:11;102807.05;;;0.80;82.91
77011;BME280;65945;53.148;17.956;2023-02-15T04:19:38;102806.56;;;0.82;82.91
77011;BME280;65945;53.148;17.956;2023-02-15T04:22:23;102806.45;;;0.86;83.03
77011;BME280;65945;53.148;17.956;2023-02-15T04:25:08;102804.17;;;0.86;83.15
77011;BME280;65945;53.148;17.956;2023-02-15T04:27:49;102808.74;;;0.86;82.84
77011;BME280;65945;53.148;17.956;2023-02-15T04:30:18;102806.75;;;0.86;82.99
77011;BME280;65945;53.148;17.956;2023-02-15T04:32:45;102803.45;;;0.87;82.78
77011;BME280;65945;53.148;17.956;2023-02-15T04:35:12;102806.30;;;0.91;82.82
77011;BME280;65945;53.148;17.956;2023-02-15T04:37:40;102804.54;;;0.92;82.86
77011;BME280;65945;53.148;17.956;2023-02-15T04:40:12;102803.44;;;0.91;82.63
77011;BME280;65945;53.148;17.956;2023-02-15T04:42:39;102804.04;;;0.91;82.70
77011;BME280;65945;53.148;17.956;2023-02-15T04:45:06;102799.77;;;0.87;82.75
77011;BME280;65945;53.148;17.956;2023-02-15T04:47:33;102796.39;;;0.82;82.86
77011;BME280;65945;53.148;17.956;2023-02-15T04:50:00;102793.55;;;0.80;82.71
77011;BME280;65945;53.148;17.956;2023-02-15T04:52:27;102791.61;;;0.78;83.11
77011;BME280;65945;53.148;17.956;2023-02-15T04:54:53;102785.31;;;0.76;83.26
77011;BME280;65945;53.148;17.956;2023-02-15T04:57:20;102786.54;;;0.74;82.98
77011;BME280;65945;53.148;17.956;2023-02-15T04:59:47;102785.27;;;0.74;83.16
77011;BME280;65945;53.148;17.956;2023-02-15T05:02:13;102788.30;;;0.73;83.18
77011;BME280;65945;53.148;17.956;2023-02-15T05:04:40;102791.09;;;0.73;83.15
77011;BME280;65945;53.148;17.956;2023-02-15T05:07:06;102786.52;;;0.74;83.13
77011;BME280;65945;53.148;17.956;2023-02-15T05:09:33;102789.25;;;0.76;83.05
77011;BME280;65945;53.148;17.956;2023-02-15T05:12:00;102791.09;;;0.79;83.08
77011;BME280;65945;53.148;17.956;2023-02-15T05:14:26;102788.70;;;0.82;82.88
77011;BME280;65945;53.148;17.956;2023-02-15T05:16:53;102784.77;;;0.83;83.21
77011;BME280;65945;53.148;17.956;2023-02-15T05:19:20;102785.13;;;0.86;82.85
77011;BME280;65945;53.148;17.956;2023-02-15T05:21:47;102782.52;;;0.86;83.08
77011;BME280;65945;53.148;17.956;2023-02-15T05:24:13;102786.77;;;0.88;83.05
77011;BME280;65945;53.148;17.956;2023-02-15T05:26:59;102789.58;;;0.90;82.88
77011;BME280;65945;53.148;17.956;2023-02-15T05:29:44;102791.02;;;0.90;82.77
77011;BME280;65945;53.148;17.956;2023-02-15T05:32:13;102792.64;;;0.91;82.82
77011;BME280;65945;53.148;17.956;2023-02-15T05:34:40;102794.23;;;0.93;82.87
77011;BME280;65945;53.148;17.956;2023-02-15T05:37:07;102793.66;;;0.93;82.61
77011;BME280;65945;53.148;17.956;2023-02-15T05:39:34;102793.17;;;0.92;82.63
77011;BME280;65945;53.148;17.956;2023-02-15T05:42:00;102787.52;;;0.94;82.88
77011;BME280;65945;53.148;17.956;2023-02-15T05:44:27;102789.25;;;0.96;82.79
77011;BME280;65945;53.148;17.956;2023-02-15T05:46:53;102785.09;;;0.98;82.74
77011;BME280;65945;53.148;17.956;2023-02-15T05:49:20;102785.70;;;0.98;82.81
77011;BME280;65945;53.148;17.956;2023-02-15T05:51:47;102785.02;;;0.99;82.64
77011;BME280;65945;53.148;17.956;2023-02-15T05:54:13;102782.43;;;0.98;82.65
77011;BME280;65945;53.148;17.956;2023-02-15T05:56:40;102780.92;;;0.97;82.74
77011;BME280;65945;53.148;17.956;2023-02-15T05:59:06;102780.84;;;0.95;82.57
77011;BME280;65945;53.148;17.956;2023-02-15T06:01:33;102785.27;;;0.92;82.59
77011;BME280;65945;53.148;17.956;2023-02-15T06:04:00;102783.20;;;0.91;82.44
77011;BME280;65945;53.148;17.956;2023-02-15T06:06:26;102780.11;;;0.90;82.59
77011;BME280;65945;53.148;17.956;2023-02-15T06:08:53;102781.66;;;0.83;82.99
77011;BME280;65945;53.148;17.956;2023-02-15T06:11:20;102783.86;;;0.80;82.97
77011;BME280;65945;53.148;17.956;2023-02-15T06:13:46;102776.81;;;0.80;82.98
77011;BME280;65945;53.148;17.956;2023-02-15T06:16:13;102780.84;;;0.81;83.04
77011;BME280;65945;53.148;17.956;2023-02-15T06:18:42;102777.50;;;0.80;83.18
77011;BME280;65945;53.148;17.956;2023-02-15T06:21:09;102778.11;;;0.78;82.98
77011;BME280;65945;53.148;17.956;2023-02-15T06:23:36;102776.55;;;0.75;82.95
77011;BME280;65945;53.148;17.956;2023-02-15T06:26:02;102774.58;;;0.74;83.19
77011;BME280;65945;53.148;17.956;2023-02-15T06:28:29;102774.72;;;0.73;83.14
77011;BME280;65945;53.148;17.956;2023-02-15T06:30:56;102775.98;;;0.77;83.12
77011;BME280;65945;53.148;17.956;2023-02-15T06:33:22;102774.45;;;0.76;83.37
77011;BME280;65945;53.148;17.956;2023-02-15T06:35:49;102772.29;;;0.75;83.40
77011;BME280;65945;53.148;17.956;2023-02-15T06:38:16;102772.48;;;0.73;83.30
77011;BME280;65945;53.148;17.956;2023-02-15T06:40:43;102770.16;;;0.72;83.20
77011;BME280;65945;53.148;17.956;2023-02-15T06:43:10;102773.27;;;0.75;83.58
77011;BME280;65945;53.148;17.956;2023-02-15T06:45:37;102768.20;;;0.79;83.30
77011;BME280;65945;53.148;17.956;2023-02-15T06:48:04;102771.26;;;0.82;83.36
77011;BME280;65945;53.148;17.956;2023-02-15T06:50:33;102769.42;;;0.88;83.48
77011;BME280;65945;53.148;17.956;2023-02-15T06:53:00;102765.70;;;0.94;83.10
77011;BME280;65945;53.148;17.956;2023-02-15T06:55:27;102759.70;;;0.96;83.14
77011;BME280;65945;53.148;17.956;2023-02-15T06:57:54;102761.00;;;0.96;83.12
77011;BME280;65945;53.148;17.956;2023-02-15T07:00:21;102758.20;;;0.99;83.36
77011;BME280;65945;53.148;17.956;2023-02-15T07:02:56;102759.39;;;1.03;83.45
77011;BME280;65945;53.148;17.956;2023-02-15T07:05:27;102755.46;;;1.16;83.50
77011;BME280;65945;53.148;17.956;2023-02-15T07:07:58;102755.91;;;1.38;83.43
77011;BME280;65945;53.148;17.956;2023-02-15T07:10:25;102750.65;;;1.60;83.24
77011;BME280;65945;53.148;17.956;2023-02-15T07:12:52;102748.56;;;1.77;82.62
77011;BME280;65945;53.148;17.956;2023-02-15T07:15:19;102747.64;;;1.93;82.35
77011;BME280;65945;53.148;17.956;2023-02-15T07:17:50;102744.40;;;2.07;82.20
77011;BME280;65945;53.148;17.956;2023-02-15T07:20:22;102742.77;;;2.14;81.91
77011;BME280;65945;53.148;17.956;2023-02-15T07:22:49;102738.05;;;2.12;81.49
77011;BME280;65945;53.148;17.956;2023-02-15T07:25:16;102737.84;;;2.09;81.46
77011;BME280;65945;53.148;17.956;2023-02-15T07:27:43;102739.70;;;2.09;81.23
77011;BME280;65945;53.148;17.956;2023-02-15T07:30:14;102740.19;;;2.03;81.24
77011;BME280;65945;53.148;17.956;2023-02-15T07:32:42;102745.73;;;1.97;81.58
77011;BME280;65945;53.148;17.956;2023-02-15T07:35:27;102745.73;;;1.86;81.48
77011;BME280;65945;53.148;17.956;2023-02-15T07:37:54;102745.67;;;1.79;81.67
77011;BME280;65945;53.148;17.956;2023-02-15T07:40:20;102741.93;;;1.72;81.75
77011;BME280;65945;53.148;17.956;2023-02-15T07:42:50;102739.65;;;1.68;81.70
77011;BME280;65945;53.148;17.956;2023-02-15T07:45:19;102737.38;;;1.68;81.69
77011;BME280;65945;53.148;17.956;2023-02-15T07:47:46;102738.56;;;1.66;81.92
77011;BME280;65945;53.148;17.956;2023-02-15T07:50:12;102732.91;;;1.63;81.99
77011;BME280;65945;53.148;17.956;2023-02-15T07:52:39;102731.81;;;1.60;82.07
77011;BME280;65945;53.148;17.956;2023-02-15T07:55:06;102731.20;;;1.55;82.04
77011;BME280;65945;53.148;17.956;2023-02-15T07:57:34;102727.14;;;1.52;82.22
77011;BME280;65945;53.148;17.956;2023-02-15T08:00:02;102725.77;;;1.53;82.18
77011;BME280;65945;53.148;17.956;2023-02-15T08:02:39;102721.98;;;1.56;82.46
77011;BME280;65945;53.148;17.956;2023-02-15T08:05:06;102717.02;;;1.55;82.50
77011;BME280;65945;53.148;17.956;2023-02-15T08:07:33;102716.55;;;1.52;82.63
77011;BME280;65945;53.148;17.956;2023-02-15T08:09:59;102708.73;;;1.48;82.35
77011;BME280;65945;53.148;17.956;2023-02-15T08:12:26;102704.80;;;1.47;82.55
77011;BME280;65945;53.148;17.956;2023-02-15T08:14:53;102700.92;;;1.45;82.64
77011;BME280;65945;53.148;17.956;2023-02-15T08:17:20;102695.16;;;1.48;82.73
77011;BME280;65945;53.148;17.956;2023-02-15T08:19:47;102689.08;;;1.49;82.72
77011;BME280;65945;53.148;17.956;2023-02-15T08:22:14;102689.96;;;1.52;82.63
77011;BME280;65945;53.148;17.956;2023-02-15T08:24:41;102686.55;;;1.56;82.76
77011;BME280;65945;53.148;17.956;2023-02-15T08:27:10;102682.42;;;1.62;82.92
77011;BME280;65945;53.148;17.956;2023-02-15T08:29:38;102685.39;;;1.73;82.97
77011;BME280;65945;53.148;17.956;2023-02-15T08:32:08;102684.40;;;1.85;82.78
77011;BME280;65945;53.148;17.956;2023-02-15T08:34:39;102683.65;;;1.95;82.59
77011;BME280;65945;53.148;17.956;2023-02-15T08:37:05;102679.90;;;2.07;82.49
77011;BME280;65945;53.148;17.956;2023-02-15T08:39:32;102684.71;;;2.23;82.31
77011;BME280;65945;53.148;17.956;2023-02-15T08:41:59;102680.71;;;2.38;82.18
77011;BME280;65945;53.148;17.956;2023-02-15T08:44:25;102681.30;;;2.52;82.33
77011;BME280;65945;53.148;17.956;2023-02-15T08:46:52;102676.46;;;2.62;81.93
77011;BME280;65945;53.148;17.956;2023-02-15T08:49:20;102671.52;;;2.69;81.74
77011;BME280;65945;53.148;17.956;2023-02-15T08:51:48;102669.11;;;2.77;81.56
77011;BME280;65945;53.148;17.956;2023-02-15T08:54:17;102668.95;;;2.81;81.47
77011;BME280;65945;53.148;17.956;2023-02-15T08:56:45;102665.23;;;2.85;81.33
77011;BME280;65945;53.148;17.956;2023-02-15T08:59:15;102663.59;;;2.90;81.18
77011;BME280;65945;53.148;17.956;2023-02-15T09:01:43;102659.36;;;2.95;81.07
77011;BME280;65945;53.148;17.956;2023-02-15T09:04:10;102657.73;;;3.02;81.04
77011;BME280;65945;53.148;17.956;2023-02-15T09:06:38;102661.13;;;3.09;81.07
77011;BME280;65945;53.148;17.956;2023-02-15T09:09:06;102658.93;;;3.19;81.04
77011;BME280;65945;53.148;17.956;2023-02-15T09:11:36;102656.45;;;3.30;80.99
77011;BME280;65945;53.148;17.956;2023-02-15T09:14:06;102654.20;;;3.42;80.85
77011;BME280;65945;53.148;17.956;2023-02-15T09:16:36;102654.30;;;3.55;80.83
77011;BME280;65945;53.148;17.956;2023-02-15T09:19:04;102650.40;;;3.65;80.58
77011;BME280;65945;53.148;17.956;2023-02-15T09:21:32;102649.87;;;3.75;80.10
77011;BME280;65945;53.148;17.956;2023-02-15T09:24:02;102652.93;;;3.82;79.82
77011;BME280;65945;53.148;17.956;2023-02-15T09:26:30;102657.38;;;3.90;79.75
77011;BME280;65945;53.148;17.956;2023-02-15T09:29:00;102656.09;;;3.96;79.53
77011;BME280;65945;53.148;17.956;2023-02-15T09:31:37;102655.55;;;4.03;79.20
77011;BME280;65945;53.148;17.956;2023-02-15T09:34:04;102655.77;;;4.09;79.00
77011;BME280;65945;53.148;17.956;2023-02-15T09:36:36;102655.27;;;4.14;78.97
77011;BME280;65945;53.148;17.956;2023-02-15T09:39:11;102653.66;;;4.21;78.45
77011;BME280;65945;53.148;17.956;2023-02-15T09:44:47;102643.73;;;4.38;78.12
77011;BME280;65945;53.148;17.956;2023-02-15T09:52:58;102631.71;;;4.72;78.22
77011;BME280;65945;53.148;17.956;2023-02-15T09:58:33;102629.36;;;4.93;76.85
77011;BME280;65945;53.148;17.956;2023-02-15T10:03:54;102619.45;;;5.03;75.92
77011;BME280;65945;53.148;17.956;2023-02-15T10:09:32;102619.60;;;5.10;75.64
77011;BME280;65945;53.148;17.956;2023-02-15T10:12:15;102614.83;;;5.11;75.29
77011;BME280;65945;53.148;17.956;2023-02-15T10:15:28;102615.10;;;5.09;74.89
77011;BME280;65945;53.148;17.956;2023-02-15T10:21:36;102612.92;;;5.06;74.24
77011;BME280;65945;53.148;17.956;2023-02-15T10:27:13;102605.97;;;4.99;74.91
77011;BME280;65945;53.148;17.956;2023-02-15T10:33:01;102608.09;;;5.01;74.85
77011;BME280;65945;53.148;17.956;2023-02-15T10:35:41;102604.44;;;5.02;74.05
77011;BME280;65945;53.148;17.956;2023-02-15T10:41:17;102595.95;;;4.96;73.18
77011;BME280;65945;53.148;17.956;2023-02-15T10:43:57;102592.17;;;4.91;73.44
77011;BME280;65945;53.148;17.956;2023-02-15T10:46:45;102593.81;;;4.89;73.76
77011;BME280;65945;53.148;17.956;2023-02-15T10:55:12;102587.63;;;4.87;73.76
77011;BME280;65945;53.148;17.956;2023-02-15T10:57:48;102593.55;;;4.86;73.70
77011;BME280;65945;53.148;17.956;2023-02-15T11:00:25;102591.39;;;4.84;73.93
77011;BME280;65945;53.148;17.956;2023-02-15T11:08:07;102579.30;;;4.81;73.81
77011;BME280;65945;53.148;17.956;2023-02-15T11:10:40;102573.25;;;4.84;74.25
77011;BME280;65945;53.148;17.956;2023-02-15T11:13:20;102571.98;;;4.92;73.95
77011;BME280;65945;53.148;17.956;2023-02-15T11:24:13;102559.94;;;5.06;73.29
77011;BME280;65945;53.148;17.956;2023-02-15T11:26:44;102555.74;;;5.04;72.93
77011;BME280;65945;53.148;17.956;2023-02-15T11:29:22;102550.65;;;5.03;73.19
77011;BME280;65945;53.148;17.956;2023-02-15T11:31:57;102548.11;;;4.99;72.95
77011;BME280;65945;53.148;17.956;2023-02-15T11:34:34;102546.56;;;5.01;73.27
77011;BME280;65945;53.148;17.956;2023-02-15T11:37:17;102544.34;;;5.07;73.35
77011;BME280;65945;53.148;17.956;2023-02-15T11:39:45;102537.70;;;5.16;73.33
77011;BME280;65945;53.148;17.956;2023-02-15T11:42:23;102536.14;;;5.25;72.67
77011;BME280;65945;53.148;17.956;2023-02-15T11:45:14;102532.84;;;5.31;72.68
77011;BME280;65945;53.148;17.956;2023-02-15T11:47:43;102529.48;;;5.36;73.12
77011;BME280;65945;53.148;17.956;2023-02-15T11:50:17;102528.61;;;5.43;72.85
77011;BME280;65945;53.148;17.956;2023-02-15T11:52:52;102528.63;;;5.54;72.89
77011;BME280;65945;53.148;17.956;2023-02-15T11:55:23;102532.27;;;5.65;72.32
77011;BME280;65945;53.148;17.956;2023-02-15T11:58:00;102530.52;;;5.73;72.43
77011;BME280;65945;53.148;17.956;2023-02-15T12:00:35;102529.77;;;5.78;72.18
77011;BME280;65945;53.148;17.956;2023-02-15T12:03:09;102526.89;;;5.84;72.52
77011;BME280;65945;53.148;17.956;2023-02-15T12:05:40;102522.58;;;5.88;71.92
77011;BME280;65945;53.148;17.956;2023-02-15T12:08:13;102515.08;;;5.92;72.25
77011;BME280;65945;53.148;17.956;2023-02-15T12:11:05;102513.72;;;5.98;72.05
77011;BME280;65945;53.148;17.956;2023-02-15T12:13:34;102514.27;;;6.05;71.62
77011;BME280;65945;53.148;17.956;2023-02-15T12:16:06;102513.60;;;6.09;71.65
77011;BME280;65945;53.148;17.956;2023-02-15T12:18:42;102507.48;;;6.10;71.35
77011;BME280;65945;53.148;17.956;2023-02-15T12:21:16;102505.79;;;6.09;70.99
77011;BME280;65945;53.148;17.956;2023-02-15T12:23:52;102501.60;;;6.07;71.30
77011;BME280;65945;53.148;17.956;2023-02-15T12:26:28;102500.93;;;6.03;71.03
77011;BME280;65945;53.148;17.956;2023-02-15T12:29:00;102498.14;;;6.00;70.79
77011;BME280;65945;53.148;17.956;2023-02-15T12:31:37;102494.55;;;5.95;70.80
77011;BME280;65945;53.148;17.956;2023-02-15T12:34:17;102488.27;;;5.94;71.09
77011;BME280;65945;53.148;17.956;2023-02-15T12:36:49;102490.52;;;5.94;70.79
77011;BME280;65945;53.148;17.956;2023-02-15T12:39:22;102488.00;;;5.97;71.12
77011;BME280;65945;53.148;17.956;2023-02-15T12:44:23;102480.35;;;6.07;71.03
77011;BME280;65945;53.148;17.956;2023-02-15T12:47:00;102479.45;;;6.17;70.92
77011;BME280;65945;53.148;17.956;2023-02-15T12:49:29;102474.02;;;6.22;70.65
77011;BME280;65945;53.148;17.956;2023-02-15T12:52:00;102465.41;;;6.25;70.12
77011;BME280;65945;53.148;17.956;2023-02-15T12:54:32;102465.23;;;6.24;70.15
77011;BME280;65945;53.148;17.956;2023-02-15T12:56:59;102465.61;;;6.17;70.25
77011;BME280;65945;53.148;17.956;2023-02-15T12:59:25;102464.23;;;6.10;70.71
77011;BME280;65945;53.148;17.956;2023-02-15T13:01:52;102463.09;;;6.05;70.41
77011;BME280;65945;53.148;17.956;2023-02-15T13:04:27;102459.55;;;5.93;70.21
77011;BME280;65945;53.148;17.956;2023-02-15T13:06:58;102459.38;;;5.86;71.00
77011;BME280;65945;53.148;17.956;2023-02-15T13:12:18;102447.58;;;5.87;70.87
77011;BME280;65945;53.148;17.956;2023-02-15T13:14:48;102447.22;;;5.88;70.72
77011;BME280;65945;53.148;17.956;2023-02-15T13:17:30;102440.73;;;5.87;70.35
77011;BME280;65945;53.148;17.956;2023-02-15T13:20:03;102442.93;;;5.85;70.47
77011;BME280;65945;53.148;17.956;2023-02-15T13:22:36;102439.11;;;5.84;70.29
77011;BME280;65945;53.148;17.956;2023-02-15T13:25:19;102439.48;;;5.83;70.51
77011;BME280;65945;53.148;17.956;2023-02-15T13:27:52;102436.55;;;5.81;69.94
77011;BME280;65945;53.148;17.956;2023-02-15T13:30:25;102435.83;;;5.76;70.49
77011;BME280;65945;53.148;17.956;2023-02-15T13:32:56;102438.02;;;5.74;70.69
77011;BME280;65945;53.148;17.956;2023-02-15T13:35:25;102430.45;;;5.69;70.54
77011;BME280;65945;53.148;17.956;2023-02-15T13:40:58;102427.91;;;5.58;70.50
77011;BME280;65945;53.148;17.956;2023-02-15T13:46:28;102425.05;;;5.54;70.51
77011;BME280;65945;53.148;17.956;2023-02-15T13:52:42;102416.16;;;5.50;70.86
77011;BME280;65945;53.148;17.956;2023-02-15T13:54:49;102412.47;;;5.46;70.87
77011;BME280;65945;53.148;17.956;2023-02-15T14:14:44;102401.25;;;5.38;71.57
77011;BME280;65945;53.148;17.956;2023-02-15T14:17:25;102403.66;;;5.56;71.44
77011;BME280;65945;53.148;17.956;2023-02-15T14:22:55;102405.11;;;5.81;70.73
77011;BME280;65945;53.148;17.956;2023-02-15T14:25:48;102406.17;;;5.80;70.37
77011;BME280;65945;53.148;17.956;2023-02-15T14:28:34;102405.79;;;5.72;70.71
77011;BME280;65945;53.148;17.956;2023-02-15T14:31:07;102400.86;;;5.64;70.55
77011;BME280;65945;53.148;17.956;2023-02-15T14:34:15;102395.95;;;5.57;71.02
77011;BME280;65945;53.148;17.956;2023-02-15T14:36:32;102399.46;;;5.48;71.17
77011;BME280;65945;53.148;17.956;2023-02-15T14:39:22;102394.02;;;5.40;70.97
77011;BME280;65945;53.148;17.956;2023-02-15T14:42:21;102393.71;;;5.28;71.14
77011;BME280;65945;53.148;17.956;2023-02-15T14:45:17;102393.53;;;5.19;71.21
77011;BME280;65945;53.148;17.956;2023-02-15T14:48:00;102387.53;;;5.06;71.17
77011;BME280;65945;53.148;17.956;2023-02-15T14:55:41;102374.44;;;4.86;71.46
77011;BME280;65945;53.148;17.956;2023-02-15T14:58:12;102371.50;;;4.76;71.84
77011;BME280;65945;53.148;17.956;2023-02-15T15:00:40;102371.00;;;4.67;71.49
77011;BME280;65945;53.148;17.956;2023-02-15T15:03:21;102369.00;;;4.59;72.05
77011;BME280;65945;53.148;17.956;2023-02-15T15:05:52;102366.35;;;4.58;72.37
77011;BME280;65945;53.148;17.956;2023-02-15T15:08:31;102366.55;;;4.66;72.76
77011;BME280;65945;53.148;17.956;2023-02-15T15:13:59;102354.85;;;4.53;72.34